This is the latest recevied weather packets stored in our database for station/object 9W2GDL-10. If no packets are shown the sender has not sent any weather packets the latest 10 day(s).
| Time | Temp. | Humidity | Pressure | Rain* | Wind** | Luminosity | Snow |
|---|---|---|---|---|---|---|---|
| 1787647846 | 32.22° C | 69% | 1010.9 hPa | - | - | - | - |
| 1787647246 | 32.22° C | 69% | 1011 hPa | - | - | - | - |
| 1787646644 | 31.67° C | 69% | 1011 hPa | - | - | - | - |
| 1787646044 | 32.22° C | 68% | 1010.9 hPa | - | - | - | - |
| 1787645443 | 32.78° C | 66% | 1011 hPa | - | - | - | - |
| 1787644845 | 32.22° C | 67% | 1011.2 hPa | - | - | - | - |
| 1787644241 | 31.67° C | 67% | 1011.2 hPa | - | - | - | - |
| 1787643640 | 31.67° C | 67% | 1011.2 hPa | - | - | - | - |
| 1787643040 | 31.67° C | 67% | 1011.2 hPa | - | - | - | - |
| 1787642439 | 31.67° C | 67% | 1011.1 hPa | - | - | - | - |
| 1787641838 | 31.67° C | 67% | 1011 hPa | - | - | - | - |
| 1787641237 | 32.22° C | 66% | 1011.1 hPa | - | - | - | - |
| 1787640637 | 31.67° C | 67% | 1011.5 hPa | - | - | - | - |
| 1787640036 | 32.22° C | 67% | 1012 hPa | - | - | - | - |
| 1787639435 | 32.22° C | 66% | 1012.1 hPa | - | - | - | - |
| 1787638834 | 31.67° C | 64% | 1012.4 hPa | - | - | - | - |
| 1787638234 | 31.11° C | 64% | 1012.5 hPa | - | - | - | - |
| 1787637633 | 31.11° C | 63% | 1012.9 hPa | - | - | - | - |
| 1787637032 | 30.56° C | 60% | 1013.3 hPa | - | - | - | - |
| 1787636431 | 29.44° C | 58% | 1013.4 hPa | - | - | - | - |
| 1787635830 | 29.44° C | 61% | 1013.2 hPa | - | - | - | - |
| 1787635230 | 31.67° C | 65% | 1012.9 hPa | - | - | - | - |
| 1787634629 | 33.33° C | 66% | 1013 hPa | - | - | - | - |
| 1787634028 | 33.33° C | 66% | 1013 hPa | - | - | - | - |
| 1787633427 | 32.22° C | 69% | 1013 hPa | - | - | - | - |
* Rain since midnight (hover to see other rain measurements)
** Current wind speed in m/s (hover to see current wind gust speed)